YSNW/NOA METAR and TAF weather

Enter ICAO airport designator
Station Type Date Time Source
YSNW METAR 2021/04/13 21:00 UTC NOAA

YSNW 132100Z 36006KT CAVOK 18/02 Q1012


Station Type Date Time Source
YSNW Decoded METAR 2021/04/13 21:00 UTC NOAA

Nowra Ran Air Station, Australia (YSNW) 34-57S 150-32E 110M
Apr 13, 2021 - 05:00 PM EDT / 2021.04.13 2100 UTC
Wind: from the N (360 degrees) at 7 MPH (6 KT):0
Visibility: greater than 7 mile(s):0
Temperature: 64 F (18 C)
Dew Point: 35 F (2 C)
Relative Humidity: 34%
Pressure (altimeter): 29.88 in. Hg (1012 hPa)
ob: YSNW 132100Z 36006KT CAVOK 18/02 Q1012
cycle: 21

Station Type Date Time Source
YSNW TAF UTC NOAA

Error!

Example: see airport list